Time;durP1;ratioP1;P1;durP2;ratioP2;P2;SDS_P1;SDS_P2;PMS_P1;PMS_P2;Temp;Humidity;BMP_temperature;BMP_pressure;BME280_temperature;BME280_humidity;BME280_pressure;Samples;Min_cycle;Max_cycle;Signal;HPM_P1;HPM_P2
2021/05/16 00:00:01;;;;;;;14.70;8.70;;;18.20;74.10;;;;;;4860439;29;20052;-71
2021/05/16 00:02:27;;;;;;;13.88;9.25;;;18.20;74.30;;;;;;4843508;29;20038;-70
2021/05/16 00:04:53;;;;;;;15.57;9.07;;;18.20;74.50;;;;;;4860480;29;20072;-69
2021/05/16 00:07:19;;;;;;;13.95;9.95;;;18.20;74.60;;;;;;4843575;29;20122;-72
2021/05/16 00:09:45;;;;;;;14.35;9.93;;;18.20;74.70;;;;;;4860321;29;20049;-70
2021/05/16 00:12:12;;;;;;;15.45;9.40;;;18.10;74.80;;;;;;4860475;29;20041;-71
2021/05/16 00:14:39;;;;;;;16.02;10.23;;;18.10;75.00;;;;;;4828413;29;20048;-71
2021/05/16 00:17:06;;;;;;;16.52;10.95;;;18.10;75.20;;;;;;4860116;29;20046;-69
2021/05/16 00:19:32;;;;;;;14.70;10.32;;;18.00;75.30;;;;;;4844545;29;20169;-69
2021/05/16 00:21:59;;;;;;;20.00;11.02;;;18.00;75.30;;;;;;4847154;29;20060;-70
2021/05/16 00:24:26;;;;;;;17.05;11.18;;;18.00;75.60;;;;;;4847144;29;20598;-71
2021/05/16 00:26:51;;;;;;;16.98;11.00;;;18.00;75.60;;;;;;4847243;29;20469;-70
2021/05/16 00:29:18;;;;;;;14.70;11.02;;;18.00;75.80;;;;;;4863560;29;20076;-71
2021/05/16 00:31:44;;;;;;;16.15;10.50;;;17.90;75.90;;;;;;4863419;29;20045;-71
2021/05/16 00:34:10;;;;;;;17.52;10.00;;;17.90;76.10;;;;;;4863527;29;20493;-71
2021/05/16 00:36:36;;;;;;;15.48;11.18;;;17.90;76.10;;;;;;4846710;29;20037;-70
2021/05/16 00:39:04;;;;;;;19.02;11.68;;;17.90;76.20;;;;;;4863767;29;20129;-71
2021/05/16 00:41:31;;;;;;;20.30;10.88;;;17.80;76.30;;;;;;4831723;29;20132;-69
2021/05/16 00:43:57;;;;;;;14.13;10.55;;;17.80;76.50;;;;;;4863458;29;20034;-70
2021/05/16 00:46:23;;;;;;;15.93;12.02;;;17.80;76.70;;;;;;4863409;29;20045;-71
2021/05/16 00:48:49;;;;;;;17.42;11.45;;;17.80;76.70;;;;;;4846977;29;20045;-70
2021/05/16 00:51:15;;;;;;;15.40;11.45;;;17.80;76.80;;;;;;4863372;29;20132;-71
2021/05/16 00:53:42;;;;;;;17.42;11.88;;;17.70;76.80;;;;;;4863192;29;20044;-70
2021/05/16 00:56:08;;;;;;;15.15;10.95;;;17.70;76.90;;;;;;4846880;29;20402;-71
2021/05/16 00:58:34;;;;;;;19.10;12.15;;;17.70;77.10;;;;;;4863153;29;20041;-70
2021/05/16 01:01:07;;;;;;;16.00;12.43;;;17.70;77.10;;;;;;4846906;29;20431;-70
2021/05/16 01:03:35;;;;;;;16.15;11.45;;;17.70;77.20;;;;;;4846667;29;20080;-70
2021/05/16 01:06:01;;;;;;;20.55;12.50;;;17.70;77.20;;;;;;4846787;29;20064;-71
2021/05/16 01:08:33;;;;;;;16.38;12.60;;;17.60;77.30;;;;;;4846623;29;20044;-70
2021/05/16 01:10:59;;;;;;;16.05;11.55;;;17.60;77.50;;;;;;4846414;29;20486;-70
2021/05/16 01:13:26;;;;;;;15.55;13.13;;;17.60;77.50;;;;;;4846407;29;20048;-70
2021/05/16 01:15:53;;;;;;;15.93;12.60;;;17.60;77.70;;;;;;4862988;29;20061;-71
2021/05/16 01:18:19;;;;;;;17.30;11.63;;;17.60;77.60;;;;;;4830834;29;20037;-71
2021/05/16 01:20:49;;;;;;;13.18;11.55;;;17.60;77.80;;;;;;4846445;29;20081;-70
2021/05/16 01:23:25;;;;;;;16.00;12.35;;;17.50;78.00;;;;;;4846688;29;20126;-70
2021/05/16 01:25:57;;;;;;;15.00;11.77;;;17.50;78.00;;;;;;4846469;29;20057;-71
2021/05/16 01:28:23;;;;;;;16.20;12.32;;;17.50;78.00;;;;;;4862536;29;20554;-71
2021/05/16 01:30:51;;;;;;;14.07;12.43;;;17.50;78.10;;;;;;4845127;29;20042;-70
2021/05/16 01:33:19;;;;;;;16.20;11.82;;;17.50;78.10;;;;;;4846343;29;20043;-71
2021/05/16 01:35:47;;;;;;;13.20;11.32;;;17.50;78.20;;;;;;4846150;29;20037;-71
2021/05/16 01:38:14;;;;;;;13.05;10.50;;;17.50;78.20;;;;;;4846379;29;20097;-70
2021/05/16 01:40:41;;;;;;;15.93;11.48;;;17.50;78.10;;;;;;4846015;29;20486;-70
2021/05/16 01:43:20;;;;;;;14.77;10.98;;;17.50;78.20;;;;;;4845655;29;20045;-69
2021/05/16 01:45:46;;;;;;;13.02;10.75;;;17.50;78.20;;;;;;4830637;29;20046;-69
2021/05/16 01:48:12;;;;;;;12.68;11.38;;;17.60;78.30;;;;;;4862924;29;20067;-69
2021/05/16 01:50:40;;;;;;;13.32;10.15;;;17.60;78.30;;;;;;4862166;29;20536;-69
2021/05/16 01:53:08;;;;;;;12.75;10.27;;;17.60;78.40;;;;;;4830520;29;20049;-69
2021/05/16 01:55:34;;;;;;;16.58;11.70;;;17.60;78.30;;;;;;4830366;29;20475;-69
2021/05/16 01:58:01;;;;;;;15.35;11.40;;;17.60;78.30;;;;;;4845678;29;20064;-69
2021/05/16 02:00:34;;;;;;;14.93;10.75;;;17.60;78.40;;;;;;4845599;29;20080;-70
2021/05/16 02:03:04;;;;;;;14.07;10.70;;;17.60;78.40;;;;;;4845873;29;20503;-69
2021/05/16 02:05:36;;;;;;;11.95;9.65;;;17.60;78.60;;;;;;4831032;29;20090;-69
2021/05/16 02:08:04;;;;;;;14.10;11.20;;;17.60;78.50;;;;;;4862251;29;20072;-68
2021/05/16 02:10:33;;;;;;;11.25;10.05;;;17.60;78.60;;;;;;4830489;29;20048;-69
2021/05/16 02:13:05;;;;;;;12.63;10.50;;;17.60;78.60;;;;;;4831299;29;20045;-69
2021/05/16 02:15:32;;;;;;;11.00;9.57;;;17.70;78.60;;;;;;4845253;29;20522;-69
2021/05/16 02:18:00;;;;;;;12.68;9.80;;;18.00;78.50;;;;;;4845258;29;20041;-69
2021/05/16 02:20:26;;;;;;;8.73;7.88;;;18.30;77.90;;;;;;4860484;29;20038;-69
2021/05/16 02:22:53;;;;;;;12.13;9.23;;;18.60;77.10;;;;;;4861864;29;20056;-70
2021/05/16 02:25:20;;;;;;;10.60;8.55;;;18.90;76.30;;;;;;4830390;29;20185;-69
2021/05/16 02:27:48;;;;;;;11.52;8.43;;;19.30;75.40;;;;;;4862177;29;20509;-70
2021/05/16 02:30:15;;;;;;;12.38;9.43;;;19.60;74.60;;;;;;4845129;29;20128;-69
2021/05/16 02:32:42;;;;;;;9.80;8.25;;;19.90;73.40;;;;;;4829735;29;20046;-69
2021/05/16 02:35:10;;;;;;;10.63;9.05;;;20.20;72.80;;;;;;4862072;29;20037;-69
2021/05/16 02:37:46;;;;;;;10.50;8.60;;;20.50;71.70;;;;;;4846637;29;20033;-69
2021/05/16 02:40:13;;;;;;;9.20;8.30;;;20.80;70.70;;;;;;4829968;29;20042;-69
2021/05/16 02:42:41;;;;;;;9.20;8.18;;;21.20;69.80;;;;;;4844742;29;20057;-69
2021/05/16 02:45:11;;;;;;;10.70;7.80;;;21.50;68.70;;;;;;4844914;29;20053;-69
2021/05/16 02:47:37;;;;;;;7.97;7.18;;;21.80;67.40;;;;;;4844855;29;20045;-70
2021/05/16 02:50:06;;;;;;;8.48;7.68;;;22.10;66.70;;;;;;4829777;29;20456;-69
2021/05/16 02:52:52;;;;;;;13.07;7.80;;;22.20;66.10;;;;;;4861065;29;20483;-71
2021/05/16 02:55:22;;;;;;;8.38;7.45;;;22.00;65.80;;;;;;4830074;29;20041;-70
2021/05/16 02:57:49;;;;;;;8.52;7.50;;;21.80;66.00;;;;;;4844657;29;20029;-70
2021/05/16 03:00:17;;;;;;;8.73;7.35;;;21.60;66.30;;;;;;4829725;29;20438;-70
2021/05/16 03:02:43;;;;;;;10.40;7.63;;;21.40;66.80;;;;;;4844518;29;20048;-69
2021/05/16 03:05:10;;;;;;;11.25;7.75;;;21.30;67.20;;;;;;4861193;29;20034;-70
2021/05/16 03:07:37;;;;;;;10.25;7.18;;;21.10;67.50;;;;;;4844564;29;20034;-70
2021/05/16 03:10:04;;;;;;;10.25;7.40;;;21.00;67.70;;;;;;4844494;29;20089;-70
2021/05/16 03:12:30;;;;;;;9.07;7.32;;;20.90;68.20;;;;;;4844480;29;20045;-70
2021/05/16 03:14:56;;;;;;;11.48;7.57;;;20.80;68.30;;;;;;4844251;29;20062;-69
2021/05/16 03:17:22;;;;;;;7.25;6.63;;;20.70;68.70;;;;;;4844414;29;20049;-69
2021/05/16 03:19:49;;;;;;;10.27;7.40;;;20.70;68.80;;;;;;4844347;29;20050;-69
2021/05/16 03:22:15;;;;;;;8.15;6.53;;;20.60;68.70;;;;;;4829459;29;20037;-70
2021/05/16 03:24:44;;;;;;;7.47;6.57;;;20.60;68.90;;;;;;4844030;29;20045;-71
2021/05/16 03:27:09;;;;;;;8.10;6.72;;;20.50;69.10;;;;;;4844073;29;20053;-71
2021/05/16 03:29:35;;;;;;;9.23;7.18;;;20.60;69.10;;;;;;4860570;29;20037;-69
2021/05/16 03:32:02;;;;;;;8.10;6.53;;;20.50;69.10;;;;;;4843892;29;20050;-69
2021/05/16 03:34:28;;;;;;;7.43;6.65;;;20.40;69.40;;;;;;4860972;29;20060;-70
2021/05/16 03:36:54;;;;;;;7.47;6.78;;;20.40;69.50;;;;;;4860791;29;20033;-70
2021/05/16 03:39:21;;;;;;;7.18;6.47;;;20.40;69.60;;;;;;4860622;29;20037;-70
2021/05/16 03:41:49;;;;;;;8.85;6.57;;;20.70;69.30;;;;;;4860716;29;20559;-71
2021/05/16 03:44:15;;;;;;;6.60;6.00;;;21.30;68.40;;;;;;4843827;29;20072;-70
2021/05/16 03:46:41;;;;;;;6.40;5.60;;;22.10;66.90;;;;;;4860265;29;20467;-70
2021/05/16 03:49:07;;;;;;;5.63;5.13;;;23.00;64.80;;;;;;4844199;29;20033;-69
2021/05/16 03:51:33;;;;;;;6.25;5.30;;;23.90;62.70;;;;;;4860195;29;20051;-70
2021/05/16 03:53:59;;;;;;;5.57;5.13;;;24.70;60.60;;;;;;4859642;29;20084;-69
2021/05/16 03:56:25;;;;;;;8.32;5.40;;;25.40;59.00;;;;;;4860243;29;20065;-70
2021/05/16 03:58:51;;;;;;;4.72;4.32;;;26.10;57.60;;;;;;4843831;29;20045;-70
2021/05/16 04:01:16;;;;;;;5.53;5.03;;;26.70;57.00;;;;;;4860156;29;20050;-69
2021/05/16 04:03:42;;;;;;;5.10;4.60;;;27.30;54.80;;;;;;4860201;29;20029;-69
2021/05/16 04:06:09;;;;;;;5.28;4.57;;;27.90;53.60;;;;;;4828523;29;20128;-69
2021/05/16 04:08:35;;;;;;;4.78;4.30;;;28.40;52.50;;;;;;4859968;29;20068;-70
2021/05/16 04:11:01;;;;;;;6.57;4.60;;;28.80;51.80;;;;;;4860482;29;20133;-69
2021/05/16 04:13:26;;;;;;;6.20;4.22;;;29.30;50.70;;;;;;4860123;29;20520;-71
2021/05/16 04:15:52;;;;;;;5.75;4.68;;;29.70;49.60;;;;;;4860229;29;20531;-71
2021/05/16 04:18:18;;;;;;;4.63;4.18;;;30.10;48.80;;;;;;4843662;29;20593;-70
2021/05/16 04:20:44;;;;;;;4.35;3.92;;;30.40;48.50;;;;;;4860153;29;20242;-69
2021/05/16 04:23:10;;;;;;;4.28;3.88;;;30.80;47.40;;;;;;4843646;29;20041;-70
2021/05/16 04:25:36;;;;;;;4.20;3.90;;;31.10;47.00;;;;;;4859915;29;20072;-70
2021/05/16 04:28:02;;;;;;;4.05;3.65;;;31.50;46.20;;;;;;4860122;29;20116;-70
2021/05/16 04:30:28;;;;;;;5.65;4.00;;;31.80;45.70;;;;;;4843104;29;20045;-70
2021/05/16 04:32:54;;;;;;;4.15;3.85;;;32.10;45.30;;;;;;4859710;29;20050;-70
2021/05/16 04:35:20;;;;;;;3.95;3.60;;;32.50;44.50;;;;;;4860106;29;20042;-70
2021/05/16 04:37:46;;;;;;;4.72;3.35;;;32.70;44.10;;;;;;4859801;29;20133;-71
2021/05/16 04:40:13;;;;;;;3.60;3.20;;;33.10;43.70;;;;;;4843067;29;20101;-70
2021/05/16 04:42:38;;;;;;;4.43;3.20;;;33.50;43.10;;;;;;4859098;29;20034;-71
2021/05/16 04:45:05;;;;;;;3.65;3.35;;;33.70;42.50;;;;;;4859365;29;20125;-70
2021/05/16 04:47:31;;;;;;;4.15;3.30;;;34.00;41.90;;;;;;4843186;29;20060;-70
2021/05/16 04:49:57;;;;;;;4.30;3.92;;;34.00;41.60;;;;;;4843360;29;20529;-70
2021/05/16 04:52:23;;;;;;;3.75;3.35;;;34.00;41.70;;;;;;4859885;29;20375;-70
2021/05/16 04:54:49;;;;;;;3.00;2.80;;;34.10;41.70;;;;;;4858555;29;20073;-69
2021/05/16 04:57:15;;;;;;;3.58;3.13;;;34.10;41.40;;;;;;4859670;29;20049;-69
2021/05/16 04:59:41;;;;;;;3.15;2.63;;;34.20;41.00;;;;;;4843380;29;20037;-69
2021/05/16 05:02:07;;;;;;;5.32;3.00;;;34.20;41.00;;;;;;4827700;29;20181;-70
2021/05/16 05:04:37;;;;;;;2.85;2.58;;;34.30;40.50;;;;;;4843177;29;20482;-70
2021/05/16 05:07:06;;;;;;;5.38;2.78;;;34.50;40.20;;;;;;4846331;29;20029;-69
2021/05/16 05:09:34;;;;;;;3.10;2.72;;;34.80;40.30;;;;;;4830920;29;20041;-70
2021/05/16 05:12:00;;;;;;;3.40;3.10;;;34.90;39.90;;;;;;4831265;29;20470;-69
2021/05/16 05:14:26;;;;;;;4.70;2.65;;;35.10;39.50;;;;;;4846244;29;20514;-70
2021/05/16 05:16:52;;;;;;;4.57;2.83;;;35.30;39.40;;;;;;4846745;29;20081;-70
2021/05/16 05:19:18;;;;;;;3.60;2.90;;;35.40;38.90;;;;;;4846510;29;20406;-70
2021/05/16 05:21:44;;;;;;;5.15;2.58;;;35.60;39.20;;;;;;4862910;29;20041;-70
2021/05/16 05:24:10;;;;;;;3.78;2.80;;;35.80;38.70;;;;;;4863024;29;20579;-69
2021/05/16 05:26:36;;;;;;;4.13;2.60;;;35.90;38.30;;;;;;4846103;29;20041;-70
2021/05/16 05:29:02;;;;;;;2.45;2.03;;;36.10;37.60;;;;;;4846364;29;20049;-70
2021/05/16 05:31:28;;;;;;;2.95;2.40;;;36.00;38.00;;;;;;4846004;29;20045;-70
2021/05/16 05:33:54;;;;;;;3.20;2.50;;;36.20;37.70;;;;;;4846031;29;20034;-70
2021/05/16 05:36:20;;;;;;;2.50;2.30;;;36.50;37.20;;;;;;4862921;29;20056;-71
2021/05/16 05:38:46;;;;;;;2.50;1.98;;;36.50;37.30;;;;;;4845930;29;20045;-70
2021/05/16 05:41:14;;;;;;;3.00;2.20;;;36.70;37.20;;;;;;4862756;29;20050;-70
2021/05/16 05:43:40;;;;;;;7.22;5.50;;;36.80;37.00;;;;;;4830287;29;20444;-70
2021/05/16 05:46:06;;;;;;;3.53;3.00;;;37.00;36.50;;;;;;4845910;29;20030;-71
2021/05/16 05:48:33;;;;;;;3.28;2.30;;;37.00;36.20;;;;;;4862572;29;20033;-70
2021/05/16 05:50:59;;;;;;;3.30;2.20;;;37.10;36.20;;;;;;4862451;29;20037;-70
2021/05/16 05:53:25;;;;;;;2.72;2.05;;;37.20;35.70;;;;;;4845564;29;20053;-70
2021/05/16 05:55:51;;;;;;;3.75;2.15;;;37.30;35.90;;;;;;4862695;29;20070;-70
2021/05/16 05:58:17;;;;;;;3.22;1.98;;;37.50;36.00;;;;;;4861828;29;20128;-70
2021/05/16 06:00:42;;;;;;;3.53;2.42;;;37.60;35.50;;;;;;4862182;29;20046;-70
2021/05/16 06:03:08;;;;;;;4.32;2.10;;;37.80;35.50;;;;;;4862015;29;20040;-70
2021/05/16 06:05:34;;;;;;;2.42;1.83;;;38.00;35.10;;;;;;4862185;29;20037;-69
2021/05/16 06:08:02;;;;;;;3.10;2.05;;;38.20;34.80;;;;;;4860956;29;20499;-70
2021/05/16 06:10:28;;;;;;;1.75;1.65;;;38.20;34.50;;;;;;4862243;29;20121;-70
2021/05/16 06:12:54;;;;;;;1.90;1.80;;;38.20;34.40;;;;;;4845255;29;20152;-69
2021/05/16 06:15:22;;;;;;;1.95;1.70;;;38.20;34.50;;;;;;4861738;29;20093;-70
2021/05/16 06:17:48;;;;;;;2.65;1.63;;;38.30;34.20;;;;;;4861439;29;20049;-70
2021/05/16 06:20:14;;;;;;;2.15;1.95;;;38.40;34.70;;;;;;4845276;29;20049;-71
2021/05/16 06:22:40;;;;;;;2.03;1.92;;;38.60;33.90;;;;;;4845133;29;20057;-71
2021/05/16 06:25:06;;;;;;;2.67;2.00;;;38.60;33.70;;;;;;4845282;29;20037;-71
2021/05/16 06:27:33;;;;;;;3.95;1.60;;;38.70;33.50;;;;;;4861460;29;20403;-70
2021/05/16 06:29:58;;;;;;;2.22;2.00;;;38.70;33.70;;;;;;4845130;29;20094;-71
2021/05/16 06:32:25;;;;;;;2.42;1.90;;;38.60;34.10;;;;;;4845237;29;20049;-70
2021/05/16 06:34:51;;;;;;;3.88;1.90;;;38.80;33.50;;;;;;4861719;29;20037;-70
2021/05/16 06:37:17;;;;;;;3.80;1.92;;;38.90;33.40;;;;;;4861641;29;20242;-70
2021/05/16 06:39:42;;;;;;;4.57;1.90;;;38.80;33.20;;;;;;4844691;29;20049;-71
2021/05/16 06:42:09;;;;;;;1.88;1.65;;;38.90;33.20;;;;;;4844688;29;20072;-69
2021/05/16 06:44:35;;;;;;;1.75;1.58;;;38.90;33.80;;;;;;4861420;29;20167;-70
2021/05/16 06:47:02;;;;;;;4.68;2.00;;;38.90;34.00;;;;;;4844777;29;20037;-69
2021/05/16 06:49:29;;;;;;;2.03;1.80;;;38.90;33.40;;;;;;4861291;29;20033;-70
2021/05/16 06:51:55;;;;;;;2.33;1.65;;;38.80;33.00;;;;;;4844888;29;20061;-70
2021/05/16 06:54:20;;;;;;;1.98;1.67;;;38.60;33.50;;;;;;4861381;29;20163;-71
2021/05/16 06:56:46;;;;;;;2.00;1.85;;;38.60;33.50;;;;;;4861387;29;20491;-70
2021/05/16 06:59:12;;;;;;;2.17;1.92;;;38.60;33.00;;;;;;4860961;29;20040;-71
2021/05/16 07:01:39;;;;;;;2.67;1.55;;;38.50;33.00;;;;;;4861144;29;20041;-69
2021/05/16 07:04:05;;;;;;;2.05;1.90;;;38.30;33.30;;;;;;4844446;29;20065;-70
2021/05/16 07:06:32;;;;;;;1.70;1.60;;;38.20;33.40;;;;;;4844477;29;20030;-70
2021/05/16 07:08:59;;;;;;;1.92;1.83;;;37.90;34.20;;;;;;4844299;29;20040;-70
2021/05/16 07:11:25;;;;;;;3.50;1.88;;;37.80;33.80;;;;;;4844268;29;20418;-70
2021/05/16 07:13:51;;;;;;;2.92;2.00;;;37.50;34.30;;;;;;4860988;29;20048;-70
2021/05/16 07:16:17;;;;;;;2.00;1.77;;;37.20;34.60;;;;;;4860859;29;20064;-70
2021/05/16 07:18:42;;;;;;;1.70;1.60;;;37.10;34.40;;;;;;4860722;29;20468;-70
2021/05/16 07:21:08;;;;;;;3.78;2.40;;;36.90;34.50;;;;;;4860670;29;20048;-70
2021/05/16 07:23:34;;;;;;;2.90;2.00;;;36.60;34.70;;;;;;4860491;29;20506;-70
2021/05/16 07:26:00;;;;;;;3.95;1.90;;;36.40;34.90;;;;;;4860478;29;20041;-70
2021/05/16 07:28:26;;;;;;;2.97;2.10;;;36.10;35.10;;;;;;4859969;29;20132;-70
2021/05/16 07:30:52;;;;;;;4.35;1.90;;;36.00;35.20;;;;;;4828638;29;20041;-69
2021/05/16 07:33:18;;;;;;;1.73;1.63;;;35.80;35.20;;;;;;4860482;29;20045;-70
2021/05/16 07:35:44;;;;;;;1.98;1.70;;;35.50;35.30;;;;;;4860418;29;20045;-79
2021/05/16 07:38:10;;;;;;;1.88;1.77;;;35.30;35.80;;;;;;4829146;29;20033;-80
2021/05/16 07:40:37;;;;;;;2.47;1.90;;;35.00;37.10;;;;;;4860228;29;20487;-76
2021/05/16 07:43:04;;;;;;;1.80;1.70;;;34.70;37.50;;;;;;4828109;29;20053;-79
2021/05/16 07:45:30;;;;;;;1.95;1.85;;;34.20;37.60;;;;;;4843505;29;20407;-78
2021/05/16 07:47:57;;;;;;;2.53;2.20;;;34.20;38.10;;;;;;4859437;29;20041;-73
2021/05/16 07:50:23;;;;;;;2.33;1.85;;;34.00;36.80;;;;;;4843678;29;20377;-73
2021/05/16 07:52:49;;;;;;;3.22;2.00;;;33.50;37.60;;;;;;4860321;29;20037;-74
2021/05/16 07:55:15;;;;;;;4.68;2.40;;;33.20;38.10;;;;;;4843987;29;20529;-75
2021/05/16 07:57:41;;;;;;;4.32;2.13;;;32.90;38.00;;;;;;4843618;29;20045;-74
2021/05/16 08:00:11;;;;;;;3.35;2.13;;;32.70;39.60;;;;;;4828594;29;20076;-73
2021/05/16 08:02:42;;;;;;;;;;;32.60;38.90;;;;;;4843715;29;20138;-73
2021/05/16 08:05:10;;;;;;;2.55;2.10;;;32.30;38.80;;;;;;4859786;29;19980;-73
2021/05/16 08:07:36;;;;;;;3.17;1.92;;;32.00;37.60;;;;;;4843660;29;20030;-73
2021/05/16 08:10:03;;;;;;;2.88;2.10;;;31.70;38.40;;;;;;4860439;29;20097;-74
2021/05/16 08:12:29;;;;;;;2.28;2.08;;;31.50;39.30;;;;;;4828691;29;20066;-73
2021/05/16 08:14:55;;;;;;;2.20;1.98;;;31.40;40.60;;;;;;4860430;29;20061;-72
2021/05/16 08:17:21;;;;;;;4.18;2.30;;;31.30;39.90;;;;;;4843740;29;20045;-74
2021/05/16 08:19:47;;;;;;;2.50;2.03;;;31.10;39.90;;;;;;4860220;29;20056;-72
2021/05/16 08:22:13;;;;;;;2.55;2.30;;;30.90;40.10;;;;;;4843455;29;20141;-72
2021/05/16 08:24:39;;;;;;;2.55;2.35;;;30.70;41.00;;;;;;4859832;29;20128;-72
2021/05/16 08:27:07;;;;;;;2.33;2.13;;;30.60;40.70;;;;;;4828040;29;20045;-73
2021/05/16 08:29:35;;;;;;;3.20;2.30;;;30.40;41.30;;;;;;4860050;29;20037;-74
2021/05/16 08:32:05;;;;;;;3.88;2.20;;;30.30;41.50;;;;;;4843220;29;20034;-74
2021/05/16 08:34:32;;;;;;;3.15;2.45;;;30.20;41.60;;;;;;4827870;29;20029;-76
2021/05/16 08:36:58;;;;;;;2.90;2.28;;;30.00;41.50;;;;;;4843667;29;20070;-75
2021/05/16 08:39:24;;;;;;;4.22;2.65;;;29.80;41.30;;;;;;4843257;29;20038;-73
2021/05/16 08:41:50;;;;;;;4.90;2.42;;;29.60;41.40;;;;;;4831292;29;20041;-75
2021/05/16 08:44:18;;;;;;;2.42;2.20;;;29.40;41.80;;;;;;4863870;29;20045;-72
2021/05/16 08:46:44;;;;;;;2.60;2.40;;;29.20;42.10;;;;;;4831942;29;20041;-73
2021/05/16 08:49:10;;;;;;;3.55;2.78;;;29.10;42.60;;;;;;4846690;29;20037;-71
2021/05/16 08:51:37;;;;;;;2.58;2.38;;;29.00;42.80;;;;;;4846978;29;20049;-74
2021/05/16 08:54:03;;;;;;;4.43;2.40;;;28.80;43.10;;;;;;4846720;29;20406;-77
2021/05/16 08:56:29;;;;;;;3.08;2.78;;;28.60;42.80;;;;;;4831720;29;20133;-75
2021/05/16 08:58:55;;;;;;;2.28;2.08;;;28.50;43.30;;;;;;4846802;29;20080;-75
2021/05/16 09:01:24;;;;;;;3.30;2.38;;;28.40;43.70;;;;;;4863031;29;20073;-79
2021/05/16 09:03:50;;;;;;;4.40;2.33;;;28.40;43.60;;;;;;4831132;29;20045;-77
2021/05/16 09:06:17;;;;;;;2.90;2.55;;;28.30;44.20;;;;;;4846693;29;20124;-75
2021/05/16 09:08:44;;;;;;;3.88;2.80;;;28.30;44.20;;;;;;4863366;29;20049;-73
2021/05/16 09:11:10;;;;;;;3.85;2.72;;;28.30;44.10;;;;;;4863488;29;20185;-77
2021/05/16 09:13:40;;;;;;;2.47;2.28;;;28.20;44.50;;;;;;4831055;29;20504;-73
2021/05/16 09:16:15;;;;;;;3.65;2.33;;;28.10;44.80;;;;;;4863188;29;20507;-73
2021/05/16 09:18:50;;;;;;;;;;;28.10;44.20;;;;;;4831583;29;20067;-74
2021/05/16 09:21:31;;;;;;;4.57;2.78;;;28.00;44.30;;;;;;4862779;29;19916;-74
2021/05/16 09:24:03;;;;;;;3.33;2.30;;;28.00;44.70;;;;;;4831232;29;20033;-72
2021/05/16 09:26:49;;;;;;;3.83;2.72;;;28.00;44.40;;;;;;4846278;29;20041;-73
2021/05/16 09:29:27;;;;;;;3.53;2.38;;;28.00;44.50;;;;;;4831177;29;20042;-74
2021/05/16 09:31:54;;;;;;;3.03;2.80;;;27.90;44.80;;;;;;4831137;29;20061;-75
2021/05/16 09:34:21;;;;;;;6.45;2.67;;;27.70;44.80;;;;;;4846211;29;20046;-76
2021/05/16 09:36:48;;;;;;;2.83;2.60;;;27.70;45.20;;;;;;4862996;29;20038;-75
2021/05/16 09:39:19;;;;;;;3.13;2.80;;;27.70;45.10;;;;;;4862191;29;20056;-76
2021/05/16 09:42:04;;;;;;;3.17;2.78;;;27.70;45.40;;;;;;4830594;29;20464;-74
2021/05/16 09:44:33;;;;;;;2.70;2.50;;;27.70;45.10;;;;;;4830896;29;20053;-76
2021/05/16 09:47:09;;;;;;;4.45;2.38;;;27.60;45.10;;;;;;4830958;29;20045;-75
2021/05/16 09:49:35;;;;;;;3.42;2.50;;;27.40;45.60;;;;;;4846233;29;20104;-76
2021/05/16 09:52:13;;;;;;;2.58;2.38;;;27.30;45.50;;;;;;4861509;29;20041;-76
2021/05/16 09:55:00;;;;;;;3.85;2.30;;;27.40;45.50;;;;;;4845838;29;20034;-76
2021/05/16 09:57:28;;;;;;;4.55;3.17;;;27.40;45.60;;;;;;4830553;29;20050;-76
2021/05/16 09:59:55;;;;;;;3.08;2.60;;;27.40;45.00;;;;;;4862459;29;20048;-76
2021/05/16 10:02:26;;;;;;;4.15;2.25;;;27.20;44.50;;;;;;4845412;29;20522;-77
2021/05/16 10:04:53;;;;;;;2.67;2.22;;;27.20;44.80;;;;;;4846090;29;20041;-76
2021/05/16 10:07:22;;;;;;;2.95;2.30;;;27.20;44.60;;;;;;4845424;29;20124;-78
2021/05/16 10:09:48;;;;;;;2.47;2.28;;;27.20;45.50;;;;;;4830536;29;20185;-75
2021/05/16 10:12:17;;;;;;;2.67;2.47;;;27.10;45.50;;;;;;4862385;29;20123;-76
2021/05/16 10:14:46;;;;;;;3.47;2.22;;;27.00;45.70;;;;;;4829960;29;20136;-77
2021/05/16 10:17:14;;;;;;;3.83;2.50;;;27.00;46.00;;;;;;4845749;29;20435;-76
2021/05/16 10:19:43;;;;;;;4.38;2.30;;;27.00;45.70;;;;;;4829989;29;20089;-76
2021/05/16 10:22:16;;;;;;;6.28;2.90;;;27.00;46.00;;;;;;4845342;29;20052;-76
2021/05/16 10:24:44;;;;;;;2.35;2.17;;;27.00;45.90;;;;;;4830204;29;20048;-75
2021/05/16 10:27:21;;;;;;;2.55;2.15;;;27.10;46.00;;;;;;4830157;29;20106;-75
2021/05/16 10:29:53;;;;;;;2.70;2.13;;;27.10;46.10;;;;;;4845551;29;20446;-78
2021/05/16 10:32:32;;;;;;;2.95;2.65;;;27.10;46.10;;;;;;4830066;29;20047;-79
2021/05/16 10:35:03;;;;;;;6.97;2.38;;;27.00;46.30;;;;;;4845558;29;20132;-78
2021/05/16 10:37:38;;;;;;;2.55;2.10;;;27.00;45.80;;;;;;4845309;29;20061;-76
2021/05/16 10:40:22;;;;;;;5.45;2.50;;;26.90;45.20;;;;;;4830104;29;20045;-77
2021/05/16 10:42:59;;;;;;;4.22;2.78;;;26.70;45.00;;;;;;4829600;29;20049;-78
2021/05/16 10:45:34;;;;;;;1.90;1.80;;;26.50;45.00;;;;;;4845322;29;20421;-78
2021/05/16 10:48:11;;;;;;;2.17;1.93;;;26.40;45.20;;;;;;4861424;29;20038;-78
2021/05/16 10:50:45;;;;;;;2.35;2.05;;;26.40;45.90;;;;;;4829925;29;20290;-78
2021/05/16 10:53:16;;;;;;;2.55;2.30;;;26.40;45.70;;;;;;4829772;29;20037;-79
2021/05/16 10:55:46;;;;;;;5.22;2.63;;;26.30;45.90;;;;;;4861638;29;20033;-78
2021/05/16 10:58:32;;;;;;;3.13;2.15;;;26.40;45.90;;;;;;4829809;29;20136;-75
2021/05/16 11:01:04;;;;;;;5.32;2.08;;;26.30;45.40;;;;;;4848634;29;20061;-74
2021/05/16 11:03:45;;;;;;;4.07;1.67;;;26.10;45.30;;;;;;4844105;29;20053;-73
2021/05/16 11:06:13;;;;;;;3.08;2.08;;;26.00;45.50;;;;;;4829563;29;20136;-78
2021/05/16 11:08:38;;;;;;;3.03;2.15;;;26.00;45.50;;;;;;4844392;29;20048;-75
2021/05/16 11:11:31;;;;;;;2.33;1.95;;;26.00;46.00;;;;;;4861067;29;20423;-80
2021/05/16 11:13:57;;;;;;;2.97;2.00;;;26.20;46.10;;;;;;4844556;29;20498;-79
2021/05/16 11:16:23;;;;;;;2.45;1.88;;;26.20;46.00;;;;;;4861271;29;20120;-79
2021/05/16 11:18:49;;;;;;;4.03;2.05;;;26.20;45.60;;;;;;4861301;29;20175;-78
2021/05/16 11:21:15;;;;;;;3.38;2.03;;;26.20;45.30;;;;;;4861036;29;20140;-79
2021/05/16 11:23:45;;;;;;;5.60;2.10;;;26.20;45.40;;;;;;4860792;29;20049;-79
2021/05/16 11:26:13;;;;;;;1.98;1.88;;;26.30;45.30;;;;;;4844553;29;20087;-79
2021/05/16 11:28:50;;;;;;;1.95;1.83;;;26.40;45.40;;;;;;4860929;29;20041;-78
2021/05/16 11:31:20;;;;;;;2.92;2.05;;;26.40;45.40;;;;;;4860961;29;20045;-78
2021/05/16 11:33:51;;;;;;;2.95;1.95;;;26.50;45.30;;;;;;4844339;29;20166;-79
2021/05/16 11:36:31;;;;;;;2.67;2.00;;;26.40;44.80;;;;;;4844398;29;20037;-78
2021/05/16 11:39:00;;;;;;;2.28;1.80;;;26.40;45.20;;;;;;4860912;29;20116;-79
2021/05/16 11:41:30;;;;;;;2.70;1.88;;;26.40;45.20;;;;;;4844455;29;20053;-78
2021/05/16 11:43:58;;;;;;;2.17;1.98;;;26.40;45.00;;;;;;4844754;29;20133;-78
2021/05/16 11:46:38;;;;;;;2.42;1.73;;;26.30;45.00;;;;;;4860610;29;20049;-79
2021/05/16 11:49:05;;;;;;;2.65;1.90;;;26.20;45.10;;;;;;4844172;29;20065;-79
2021/05/16 11:51:32;;;;;;;1.90;1.80;;;26.30;44.90;;;;;;4860330;29;20502;-78
2021/05/16 11:54:04;;;;;;;1.92;1.77;;;26.30;44.90;;;;;;4844252;29;20601;-79
2021/05/16 11:56:36;;;;;;;2.22;1.98;;;26.30;45.10;;;;;;4861203;29;20116;-79
2021/05/16 11:59:06;;;;;;;2.55;1.90;;;26.40;45.20;;;;;;4861156;29;20047;-79
2021/05/16 12:01:40;;;;;;;3.33;1.85;;;26.40;45.00;;;;;;4828787;29;20410;-79
2021/05/16 12:04:17;;;;;;;2.07;1.90;;;26.30;44.80;;;;;;4860764;29;20046;-78
2021/05/16 12:06:46;;;;;;;2.20;1.60;;;26.30;45.10;;;;;;4843958;29;20559;-79
2021/05/16 12:09:16;;;;;;;1.92;1.70;;;26.30;45.00;;;;;;4844577;29;20045;-79
2021/05/16 12:11:47;;;;;;;2.45;2.20;;;26.30;45.30;;;;;;4844166;29;20070;-79
2021/05/16 12:14:16;;;;;;;2.58;1.90;;;26.40;45.40;;;;;;4861148;29;20561;-78
2021/05/16 12:16:58;;;;;;;2.80;1.80;;;26.40;44.90;;;;;;4828841;29;20554;-80
2021/05/16 12:19:28;;;;;;;2.17;1.52;;;26.40;44.90;;;;;;4861074;29;20090;-79
2021/05/16 12:22:05;;;;;;;1.65;1.48;;;26.30;44.50;;;;;;4845142;29;20132;-77
2021/05/16 12:24:33;;;;;;;3.08;1.65;;;26.20;44.80;;;;;;4844039;29;20093;-77
2021/05/16 12:27:00;;;;;;;1.67;1.55;;;26.10;45.10;;;;;;4844570;29;20395;-80
2021/05/16 12:29:27;;;;;;;1.45;1.25;;;26.00;45.00;;;;;;4844435;29;20053;-78
2021/05/16 12:31:54;;;;;;;1.42;1.33;;;26.00;45.50;;;;;;4844205;29;20041;-80
2021/05/16 12:34:24;;;;;;;4.13;1.40;;;26.00;45.00;;;;;;4844817;29;20136;-79
2021/05/16 12:36:58;;;;;;;1.73;1.50;;;25.90;45.10;;;;;;4861262;29;20120;-77
2021/05/16 12:39:34;;;;;;;2.83;1.40;;;25.80;45.10;;;;;;4844308;29;20037;-80
2021/05/16 12:42:01;;;;;;;1.58;1.30;;;25.70;45.30;;;;;;4844641;29;20086;-80
2021/05/16 12:44:27;;;;;;;3.83;1.63;;;25.70;45.60;;;;;;4828924;29;20037;-77
2021/05/16 12:46:56;;;;;;;2.40;1.17;;;25.60;45.90;;;;;;4828590;29;20041;-79